sensor_id;sensor_type;location;lat;lon;timestamp;P1;durP1;ratioP1;P2;durP2;ratioP2
43664;SDS011;29263;48.172;11.484;2023-02-01T00:01:18;5.33;;;2.40;;
43664;SDS011;29263;48.172;11.484;2023-02-01T00:03:43;5.40;;;2.57;;
43664;SDS011;29263;48.172;11.484;2023-02-01T00:06:09;6.47;;;2.60;;
43664;SDS011;29263;48.172;11.484;2023-02-01T00:08:38;2.80;;;2.00;;
43664;SDS011;29263;48.172;11.484;2023-02-01T00:11:04;3.63;;;2.37;;
43664;SDS011;29263;48.172;11.484;2023-02-01T00:13:32;3.47;;;2.33;;
43664;SDS011;29263;48.172;11.484;2023-02-01T00:16:09;4.53;;;2.77;;
43664;SDS011;29263;48.172;11.484;2023-02-01T00:18:37;4.53;;;2.30;;
43664;SDS011;29263;48.172;11.484;2023-02-01T00:21:02;4.60;;;2.07;;
43664;SDS011;29263;48.172;11.484;2023-02-01T00:23:30;3.53;;;2.00;;
43664;SDS011;29263;48.172;11.484;2023-02-01T00:26:00;3.35;;;2.10;;
43664;SDS011;29263;48.172;11.484;2023-02-01T00:28:29;2.77;;;2.20;;
43664;SDS011;29263;48.172;11.484;2023-02-01T00:30:59;4.67;;;1.87;;
43664;SDS011;29263;48.172;11.484;2023-02-01T00:33:26;2.53;;;1.93;;
43664;SDS011;29263;48.172;11.484;2023-02-01T00:35:55;3.20;;;1.87;;
43664;SDS011;29263;48.172;11.484;2023-02-01T00:38:22;4.03;;;1.90;;
43664;SDS011;29263;48.172;11.484;2023-02-01T00:40:48;3.17;;;2.00;;
43664;SDS011;29263;48.172;11.484;2023-02-01T00:43:13;5.10;;;2.50;;
43664;SDS011;29263;48.172;11.484;2023-02-01T00:45:39;3.53;;;2.17;;
43664;SDS011;29263;48.172;11.484;2023-02-01T00:48:05;3.37;;;2.10;;
43664;SDS011;29263;48.172;11.484;2023-02-01T00:50:30;3.33;;;1.80;;
43664;SDS011;29263;48.172;11.484;2023-02-01T00:52:56;3.07;;;1.80;;
43664;SDS011;29263;48.172;11.484;2023-02-01T00:55:22;5.57;;;2.43;;
43664;SDS011;29263;48.172;11.484;2023-02-01T00:57:47;3.07;;;2.20;;
43664;SDS011;29263;48.172;11.484;2023-02-01T01:00:13;3.33;;;2.63;;
43664;SDS011;29263;48.172;11.484;2023-02-01T01:02:39;4.00;;;2.70;;
43664;SDS011;29263;48.172;11.484;2023-02-01T01:05:04;3.77;;;2.40;;
43664;SDS011;29263;48.172;11.484;2023-02-01T01:07:30;4.93;;;2.47;;
43664;SDS011;29263;48.172;11.484;2023-02-01T01:09:56;4.37;;;2.50;;
43664;SDS011;29263;48.172;11.484;2023-02-01T01:12:21;3.93;;;2.60;;
43664;SDS011;29263;48.172;11.484;2023-02-01T01:14:47;4.37;;;2.80;;
43664;SDS011;29263;48.172;11.484;2023-02-01T01:17:13;4.43;;;2.70;;
43664;SDS011;29263;48.172;11.484;2023-02-01T01:19:38;3.63;;;2.30;;
43664;SDS011;29263;48.172;11.484;2023-02-01T01:22:04;3.93;;;2.23;;
43664;SDS011;29263;48.172;11.484;2023-02-01T01:24:30;3.00;;;2.33;;
43664;SDS011;29263;48.172;11.484;2023-02-01T01:26:55;6.47;;;2.90;;
43664;SDS011;29263;48.172;11.484;2023-02-01T01:29:21;5.13;;;2.57;;
43664;SDS011;29263;48.172;11.484;2023-02-01T01:31:46;4.33;;;2.80;;
43664;SDS011;29263;48.172;11.484;2023-02-01T01:34:13;4.73;;;3.03;;
43664;SDS011;29263;48.172;11.484;2023-02-01T01:36:38;6.40;;;3.00;;
43664;SDS011;29263;48.172;11.484;2023-02-01T01:39:04;5.00;;;2.87;;
43664;SDS011;29263;48.172;11.484;2023-02-01T01:41:30;4.33;;;3.13;;
43664;SDS011;29263;48.172;11.484;2023-02-01T01:43:58;5.03;;;3.43;;
43664;SDS011;29263;48.172;11.484;2023-02-01T01:46:31;5.80;;;3.33;;
43664;SDS011;29263;48.172;11.484;2023-02-01T01:51:41;6.37;;;3.27;;
43664;SDS011;29263;48.172;11.484;2023-02-01T01:54:19;7.37;;;3.50;;
43664;SDS011;29263;48.172;11.484;2023-02-01T01:56:50;5.70;;;3.50;;
43664;SDS011;29263;48.172;11.484;2023-02-01T01:59:19;7.73;;;3.10;;
43664;SDS011;29263;48.172;11.484;2023-02-01T02:01:46;7.63;;;3.60;;
43664;SDS011;29263;48.172;11.484;2023-02-01T02:04:12;6.10;;;3.67;;
43664;SDS011;29263;48.172;11.484;2023-02-01T02:09:15;6.60;;;3.50;;
43664;SDS011;29263;48.172;11.484;2023-02-01T02:11:41;4.80;;;3.50;;
43664;SDS011;29263;48.172;11.484;2023-02-01T02:14:08;6.33;;;3.67;;
43664;SDS011;29263;48.172;11.484;2023-02-01T02:22:05;5.30;;;4.00;;
43664;SDS011;29263;48.172;11.484;2023-02-01T02:30:53;6.73;;;3.40;;
43664;SDS011;29263;48.172;11.484;2023-02-01T02:36:34;4.80;;;3.33;;
43664;SDS011;29263;48.172;11.484;2023-02-01T02:45:02;5.13;;;3.27;;
43664;SDS011;29263;48.172;11.484;2023-02-01T02:51:09;6.23;;;3.63;;
43664;SDS011;29263;48.172;11.484;2023-02-01T02:54:07;4.03;;;3.10;;
43664;SDS011;29263;48.172;11.484;2023-02-01T02:56:59;4.67;;;3.30;;
43664;SDS011;29263;48.172;11.484;2023-02-01T02:59:45;3.60;;;2.70;;
43664;SDS011;29263;48.172;11.484;2023-02-01T03:02:31;4.50;;;3.20;;
43664;SDS011;29263;48.172;11.484;2023-02-01T03:05:16;4.17;;;3.00;;
43664;SDS011;29263;48.172;11.484;2023-02-01T03:07:46;5.60;;;2.87;;
43664;SDS011;29263;48.172;11.484;2023-02-01T03:10:35;4.80;;;3.00;;
43664;SDS011;29263;48.172;11.484;2023-02-01T03:13:08;5.23;;;3.40;;
43664;SDS011;29263;48.172;11.484;2023-02-01T03:15:51;5.10;;;3.07;;
43664;SDS011;29263;48.172;11.484;2023-02-01T03:18:32;3.90;;;2.43;;
43664;SDS011;29263;48.172;11.484;2023-02-01T03:21:13;5.70;;;2.90;;
43664;SDS011;29263;48.172;11.484;2023-02-01T03:23:46;5.77;;;3.20;;
43664;SDS011;29263;48.172;11.484;2023-02-01T03:26:15;5.30;;;2.93;;
43664;SDS011;29263;48.172;11.484;2023-02-01T03:31:13;2.65;;;2.25;;
43664;SDS011;29263;48.172;11.484;2023-02-01T03:33:39;4.23;;;2.60;;
43664;SDS011;29263;48.172;11.484;2023-02-01T03:36:20;4.07;;;2.70;;
43664;SDS011;29263;48.172;11.484;2023-02-01T03:38:52;6.67;;;2.80;;
43664;SDS011;29263;48.172;11.484;2023-02-01T03:41:27;3.80;;;2.70;;
43664;SDS011;29263;48.172;11.484;2023-02-01T03:46:45;4.17;;;2.97;;
43664;SDS011;29263;48.172;11.484;2023-02-01T03:49:19;4.30;;;2.90;;
43664;SDS011;29263;48.172;11.484;2023-02-01T03:52:20;4.10;;;2.80;;
43664;SDS011;29263;48.172;11.484;2023-02-01T03:54:50;3.90;;;2.93;;
43664;SDS011;29263;48.172;11.484;2023-02-01T03:57:18;4.20;;;2.50;;
43664;SDS011;29263;48.172;11.484;2023-02-01T03:59:52;4.33;;;2.50;;
43664;SDS011;29263;48.172;11.484;2023-02-01T04:02:17;3.10;;;2.50;;
43664;SDS011;29263;48.172;11.484;2023-02-01T04:04:43;4.40;;;2.30;;
43664;SDS011;29263;48.172;11.484;2023-02-01T04:07:09;4.17;;;2.43;;
43664;SDS011;29263;48.172;11.484;2023-02-01T04:09:34;5.47;;;2.43;;
43664;SDS011;29263;48.172;11.484;2023-02-01T04:12:00;5.37;;;2.73;;
43664;SDS011;29263;48.172;11.484;2023-02-01T04:14:26;3.80;;;2.30;;
43664;SDS011;29263;48.172;11.484;2023-02-01T04:16:51;4.23;;;2.63;;
43664;SDS011;29263;48.172;11.484;2023-02-01T04:19:17;5.50;;;2.70;;
43664;SDS011;29263;48.172;11.484;2023-02-01T04:21:42;4.37;;;2.80;;
43664;SDS011;29263;48.172;11.484;2023-02-01T04:24:08;4.80;;;2.93;;
43664;SDS011;29263;48.172;11.484;2023-02-01T04:26:34;4.43;;;2.60;;
43664;SDS011;29263;48.172;11.484;2023-02-01T04:28:59;3.53;;;2.30;;
43664;SDS011;29263;48.172;11.484;2023-02-01T04:31:25;3.40;;;2.40;;
43664;SDS011;29263;48.172;11.484;2023-02-01T04:33:51;3.77;;;2.73;;
43664;SDS011;29263;48.172;11.484;2023-02-01T04:36:18;5.47;;;3.10;;
43664;SDS011;29263;48.172;11.484;2023-02-01T04:38:47;3.83;;;2.53;;
43664;SDS011;29263;48.172;11.484;2023-02-01T04:41:16;5.27;;;2.50;;
43664;SDS011;29263;48.172;11.484;2023-02-01T04:43:48;4.73;;;2.83;;
43664;SDS011;29263;48.172;11.484;2023-02-01T04:46:15;5.30;;;3.00;;
43664;SDS011;29263;48.172;11.484;2023-02-01T04:48:41;3.20;;;2.27;;
43664;SDS011;29263;48.172;11.484;2023-02-01T04:51:07;4.60;;;2.73;;
43664;SDS011;29263;48.172;11.484;2023-02-01T04:53:34;4.00;;;2.53;;
43664;SDS011;29263;48.172;11.484;2023-02-01T04:56:00;5.60;;;3.00;;
43664;SDS011;29263;48.172;11.484;2023-02-01T04:58:26;3.77;;;2.73;;
43664;SDS011;29263;48.172;11.484;2023-02-01T05:00:51;5.27;;;3.00;;
43664;SDS011;29263;48.172;11.484;2023-02-01T05:03:17;4.07;;;2.80;;
43664;SDS011;29263;48.172;11.484;2023-02-01T05:05:43;4.57;;;3.10;;
43664;SDS011;29263;48.172;11.484;2023-02-01T05:08:08;5.57;;;2.90;;
43664;SDS011;29263;48.172;11.484;2023-02-01T05:10:34;4.20;;;2.83;;
43664;SDS011;29263;48.172;11.484;2023-02-01T05:13:00;6.17;;;3.07;;
43664;SDS011;29263;48.172;11.484;2023-02-01T05:15:44;4.37;;;3.00;;
43664;SDS011;29263;48.172;11.484;2023-02-01T05:18:11;5.03;;;3.50;;
43664;SDS011;29263;48.172;11.484;2023-02-01T05:20:37;6.23;;;3.53;;
43664;SDS011;29263;48.172;11.484;2023-02-01T05:23:02;5.27;;;2.97;;
43664;SDS011;29263;48.172;11.484;2023-02-01T05:25:28;5.63;;;3.27;;
43664;SDS011;29263;48.172;11.484;2023-02-01T05:27:54;5.00;;;3.13;;
43664;SDS011;29263;48.172;11.484;2023-02-01T05:30:20;5.20;;;3.43;;
43664;SDS011;29263;48.172;11.484;2023-02-01T05:32:48;6.87;;;3.33;;
43664;SDS011;29263;48.172;11.484;2023-02-01T05:35:15;5.60;;;3.20;;
43664;SDS011;29263;48.172;11.484;2023-02-01T05:37:40;4.47;;;3.10;;
43664;SDS011;29263;48.172;11.484;2023-02-01T05:40:06;4.70;;;3.37;;
43664;SDS011;29263;48.172;11.484;2023-02-01T05:42:32;5.60;;;3.23;;
43664;SDS011;29263;48.172;11.484;2023-02-01T05:44:58;5.40;;;3.13;;
43664;SDS011;29263;48.172;11.484;2023-02-01T05:47:23;5.83;;;3.30;;
43664;SDS011;29263;48.172;11.484;2023-02-01T05:49:49;3.83;;;2.73;;
43664;SDS011;29263;48.172;11.484;2023-02-01T05:52:15;4.50;;;2.90;;
43664;SDS011;29263;48.172;11.484;2023-02-01T05:54:44;4.65;;;3.22;;
43664;SDS011;29263;48.172;11.484;2023-02-01T05:57:11;4.27;;;2.80;;
43664;SDS011;29263;48.172;11.484;2023-02-01T05:59:37;7.20;;;3.60;;
43664;SDS011;29263;48.172;11.484;2023-02-01T06:02:06;7.47;;;3.00;;
43664;SDS011;29263;48.172;11.484;2023-02-01T06:04:32;3.87;;;2.63;;
43664;SDS011;29263;48.172;11.484;2023-02-01T06:06:57;5.47;;;3.73;;
43664;SDS011;29263;48.172;11.484;2023-02-01T06:09:23;5.63;;;3.13;;
43664;SDS011;29263;48.172;11.484;2023-02-01T06:11:49;5.50;;;3.07;;
43664;SDS011;29263;48.172;11.484;2023-02-01T06:14:14;6.30;;;3.50;;
43664;SDS011;29263;48.172;11.484;2023-02-01T06:16:40;5.00;;;3.73;;
43664;SDS011;29263;48.172;11.484;2023-02-01T06:19:06;4.47;;;3.00;;
43664;SDS011;29263;48.172;11.484;2023-02-01T06:21:31;4.20;;;3.23;;
43664;SDS011;29263;48.172;11.484;2023-02-01T06:23:58;3.70;;;2.63;;
43664;SDS011;29263;48.172;11.484;2023-02-01T06:26:24;4.07;;;2.67;;
43664;SDS011;29263;48.172;11.484;2023-02-01T06:28:50;5.60;;;3.33;;
43664;SDS011;29263;48.172;11.484;2023-02-01T06:31:16;5.53;;;3.63;;
43664;SDS011;29263;48.172;11.484;2023-02-01T06:33:41;6.30;;;3.27;;
43664;SDS011;29263;48.172;11.484;2023-02-01T06:36:07;6.60;;;3.33;;
43664;SDS011;29263;48.172;11.484;2023-02-01T06:38:36;5.03;;;3.58;;
43664;SDS011;29263;48.172;11.484;2023-02-01T06:41:01;6.40;;;3.03;;
43664;SDS011;29263;48.172;11.484;2023-02-01T06:43:28;5.57;;;3.70;;
43664;SDS011;29263;48.172;11.484;2023-02-01T06:45:58;5.17;;;3.20;;
43664;SDS011;29263;48.172;11.484;2023-02-01T06:48:26;4.30;;;2.83;;
43664;SDS011;29263;48.172;11.484;2023-02-01T06:50:52;4.67;;;2.77;;
43664;SDS011;29263;48.172;11.484;2023-02-01T06:53:17;5.60;;;2.67;;
43664;SDS011;29263;48.172;11.484;2023-02-01T06:55:58;4.33;;;2.63;;
43664;SDS011;29263;48.172;11.484;2023-02-01T06:58:27;7.17;;;2.80;;
43664;SDS011;29263;48.172;11.484;2023-02-01T07:00:57;3.50;;;2.57;;
43664;SDS011;29263;48.172;11.484;2023-02-01T07:03:23;4.50;;;2.90;;
43664;SDS011;29263;48.172;11.484;2023-02-01T07:05:49;3.63;;;2.70;;
43664;SDS011;29263;48.172;11.484;2023-02-01T07:08:14;6.73;;;3.33;;
43664;SDS011;29263;48.172;11.484;2023-02-01T07:10:40;4.43;;;2.57;;
43664;SDS011;29263;48.172;11.484;2023-02-01T07:13:06;5.63;;;2.63;;
43664;SDS011;29263;48.172;11.484;2023-02-01T07:15:32;5.80;;;3.00;;
43664;SDS011;29263;48.172;11.484;2023-02-01T07:17:57;5.17;;;2.50;;
43664;SDS011;29263;48.172;11.484;2023-02-01T07:20:23;5.47;;;2.70;;
43664;SDS011;29263;48.172;11.484;2023-02-01T07:22:53;4.93;;;2.73;;
43664;SDS011;29263;48.172;11.484;2023-02-01T07:25:20;5.13;;;2.33;;
43664;SDS011;29263;48.172;11.484;2023-02-01T07:27:45;3.43;;;2.33;;
43664;SDS011;29263;48.172;11.484;2023-02-01T07:30:11;3.13;;;2.30;;
43664;SDS011;29263;48.172;11.484;2023-02-01T07:32:37;3.87;;;2.43;;
43664;SDS011;29263;48.172;11.484;2023-02-01T07:35:03;2.97;;;2.00;;
43664;SDS011;29263;48.172;11.484;2023-02-01T07:37:29;3.57;;;1.97;;
43664;SDS011;29263;48.172;11.484;2023-02-01T07:39:55;2.73;;;1.80;;
43664;SDS011;29263;48.172;11.484;2023-02-01T07:42:21;3.53;;;2.13;;
43664;SDS011;29263;48.172;11.484;2023-02-01T07:44:46;3.10;;;1.87;;
43664;SDS011;29263;48.172;11.484;2023-02-01T07:47:12;3.40;;;1.77;;
43664;SDS011;29263;48.172;11.484;2023-02-01T07:49:38;3.50;;;2.17;;
43664;SDS011;29263;48.172;11.484;2023-02-01T07:52:03;3.00;;;1.93;;
43664;SDS011;29263;48.172;11.484;2023-02-01T07:54:29;3.20;;;1.60;;
43664;SDS011;29263;48.172;11.484;2023-02-01T07:56:54;2.40;;;1.80;;
43664;SDS011;29263;48.172;11.484;2023-02-01T07:59:20;3.87;;;1.57;;
43664;SDS011;29263;48.172;11.484;2023-02-01T08:01:46;2.33;;;1.50;;
43664;SDS011;29263;48.172;11.484;2023-02-01T08:04:12;2.37;;;1.80;;
43664;SDS011;29263;48.172;11.484;2023-02-01T08:06:38;4.37;;;2.00;;
43664;SDS011;29263;48.172;11.484;2023-02-01T08:09:04;3.37;;;1.77;;
43664;SDS011;29263;48.172;11.484;2023-02-01T08:11:32;5.57;;;2.07;;
43664;SDS011;29263;48.172;11.484;2023-02-01T08:13:59;1.93;;;1.60;;
43664;SDS011;29263;48.172;11.484;2023-02-01T08:16:25;3.23;;;1.60;;
43664;SDS011;29263;48.172;11.484;2023-02-01T08:18:51;2.17;;;1.60;;
43664;SDS011;29263;48.172;11.484;2023-02-01T08:21:21;2.47;;;1.70;;
43664;SDS011;29263;48.172;11.484;2023-02-01T08:23:49;2.80;;;1.90;;
43664;SDS011;29263;48.172;11.484;2023-02-01T08:28:43;2.97;;;1.80;;
43664;SDS011;29263;48.172;11.484;2023-02-01T08:31:12;2.73;;;1.60;;
43664;SDS011;29263;48.172;11.484;2023-02-01T08:33:42;3.93;;;1.90;;
43664;SDS011;29263;48.172;11.484;2023-02-01T08:36:09;3.33;;;1.70;;
43664;SDS011;29263;48.172;11.484;2023-02-01T08:38:36;3.57;;;1.83;;
43664;SDS011;29263;48.172;11.484;2023-02-01T08:41:10;2.50;;;2.10;;
43664;SDS011;29263;48.172;11.484;2023-02-01T08:43:37;2.70;;;1.80;;
43664;SDS011;29263;48.172;11.484;2023-02-01T08:46:03;2.07;;;1.60;;
43664;SDS011;29263;48.172;11.484;2023-02-01T08:48:30;4.83;;;1.73;;
43664;SDS011;29263;48.172;11.484;2023-02-01T08:50:56;3.37;;;1.70;;
43664;SDS011;29263;48.172;11.484;2023-02-01T08:53:22;1.97;;;1.40;;
43664;SDS011;29263;48.172;11.484;2023-02-01T08:55:48;3.70;;;2.17;;
43664;SDS011;29263;48.172;11.484;2023-02-01T08:58:14;5.43;;;1.77;;
43664;SDS011;29263;48.172;11.484;2023-02-01T09:00:41;6.67;;;2.03;;
43664;SDS011;29263;48.172;11.484;2023-02-01T09:03:10;2.50;;;1.50;;
43664;SDS011;29263;48.172;11.484;2023-02-01T09:05:36;2.17;;;1.60;;
43664;SDS011;29263;48.172;11.484;2023-02-01T09:08:02;2.23;;;1.53;;
43664;SDS011;29263;48.172;11.484;2023-02-01T09:10:29;2.83;;;1.57;;
43664;SDS011;29263;48.172;11.484;2023-02-01T09:12:55;2.27;;;1.50;;
43664;SDS011;29263;48.172;11.484;2023-02-01T09:15:20;4.00;;;1.80;;
43664;SDS011;29263;48.172;11.484;2023-02-01T09:17:46;2.67;;;1.60;;
43664;SDS011;29263;48.172;11.484;2023-02-01T09:20:12;1.90;;;1.40;;
43664;SDS011;29263;48.172;11.484;2023-02-01T09:22:37;2.93;;;1.57;;
43664;SDS011;29263;48.172;11.484;2023-02-01T09:25:04;2.00;;;1.30;;
43664;SDS011;29263;48.172;11.484;2023-02-01T09:27:30;3.10;;;1.70;;
43664;SDS011;29263;48.172;11.484;2023-02-01T09:29:56;3.50;;;1.67;;
43664;SDS011;29263;48.172;11.484;2023-02-01T09:32:22;2.13;;;1.63;;
43664;SDS011;29263;48.172;11.484;2023-02-01T09:34:49;6.57;;;1.47;;
43664;SDS011;29263;48.172;11.484;2023-02-01T09:37:15;2.80;;;1.60;;
43664;SDS011;29263;48.172;11.484;2023-02-01T09:39:41;3.03;;;1.50;;
43664;SDS011;29263;48.172;11.484;2023-02-01T09:47:17;2.77;;;1.70;;
43664;SDS011;29263;48.172;11.484;2023-02-01T09:52:31;2.50;;;1.60;;
43664;SDS011;29263;48.172;11.484;2023-02-01T09:55:16;2.07;;;1.53;;
43664;SDS011;29263;48.172;11.484;2023-02-01T09:57:53;2.50;;;1.60;;
43664;SDS011;29263;48.172;11.484;2023-02-01T10:00:35;2.13;;;1.50;;
43664;SDS011;29263;48.172;11.484;2023-02-01T10:03:03;5.20;;;1.60;;
43664;SDS011;29263;48.172;11.484;2023-02-01T10:05:35;3.77;;;1.80;;
43664;SDS011;29263;48.172;11.484;2023-02-01T10:08:22;3.00;;;1.90;;
43664;SDS011;29263;48.172;11.484;2023-02-01T10:23:04;3.87;;;1.80;;
43664;SDS011;29263;48.172;11.484;2023-02-01T10:27:56;3.17;;;1.70;;
43664;SDS011;29263;48.172;11.484;2023-02-01T10:30:29;2.63;;;1.70;;
43664;SDS011;29263;48.172;11.484;2023-02-01T10:33:12;3.87;;;1.80;;
43664;SDS011;29263;48.172;11.484;2023-02-01T10:35:47;3.10;;;1.70;;
43664;SDS011;29263;48.172;11.484;2023-02-01T10:38:27;3.37;;;1.90;;
43664;SDS011;29263;48.172;11.484;2023-02-01T10:40:55;3.93;;;1.77;;
43664;SDS011;29263;48.172;11.484;2023-02-01T10:43:28;3.43;;;1.80;;
43664;SDS011;29263;48.172;11.484;2023-02-01T10:45:54;4.30;;;1.97;;
43664;SDS011;29263;48.172;11.484;2023-02-01T10:48:20;1.80;;;1.40;;
43664;SDS011;29263;48.172;11.484;2023-02-01T10:50:51;4.63;;;1.70;;
43664;SDS011;29263;48.172;11.484;2023-02-01T10:55:53;4.28;;;1.88;;
43664;SDS011;29263;48.172;11.484;2023-02-01T11:00:54;3.20;;;1.50;;
43664;SDS011;29263;48.172;11.484;2023-02-01T11:06:51;2.75;;;1.95;;
43664;SDS011;29263;48.172;11.484;2023-02-01T11:09:19;3.90;;;2.20;;
43664;SDS011;29263;48.172;11.484;2023-02-01T11:19:46;3.40;;;2.10;;
43664;SDS011;29263;48.172;11.484;2023-02-01T11:22:21;1.93;;;1.60;;
43664;SDS011;29263;48.172;11.484;2023-02-01T11:24:46;3.80;;;1.73;;
43664;SDS011;29263;48.172;11.484;2023-02-01T11:27:16;3.77;;;2.20;;
43664;SDS011;29263;48.172;11.484;2023-02-01T11:29:46;3.13;;;1.67;;
43664;SDS011;29263;48.172;11.484;2023-02-01T11:32:15;5.73;;;2.33;;
43664;SDS011;29263;48.172;11.484;2023-02-01T11:34:45;5.07;;;1.73;;
43664;SDS011;29263;48.172;11.484;2023-02-01T11:37:27;4.63;;;2.13;;
43664;SDS011;29263;48.172;11.484;2023-02-01T11:39:56;4.30;;;1.90;;
43664;SDS011;29263;48.172;11.484;2023-02-01T11:42:27;2.30;;;1.60;;
43664;SDS011;29263;48.172;11.484;2023-02-01T11:47:43;5.50;;;2.07;;
43664;SDS011;29263;48.172;11.484;2023-02-01T11:50:15;5.23;;;2.30;;
43664;SDS011;29263;48.172;11.484;2023-02-01T12:06:36;4.10;;;2.20;;
43664;SDS011;29263;48.172;11.484;2023-02-01T12:23:27;4.17;;;2.70;;
43664;SDS011;29263;48.172;11.484;2023-02-01T12:39:35;6.67;;;2.10;;
43664;SDS011;29263;48.172;11.484;2023-02-01T12:44:57;6.90;;;2.73;;
43664;SDS011;29263;48.172;11.484;2023-02-01T12:47:47;5.97;;;2.10;;
43664;SDS011;29263;48.172;11.484;2023-02-01T12:55:37;4.73;;;2.43;;
43664;SDS011;29263;48.172;11.484;2023-02-01T13:00:45;6.00;;;1.40;;
43664;SDS011;29263;48.172;11.484;2023-02-01T13:06:02;4.20;;;1.80;;
43664;SDS011;29263;48.172;11.484;2023-02-01T13:11:03;4.47;;;2.00;;
43664;SDS011;29263;48.172;11.484;2023-02-01T13:13:36;8.73;;;2.37;;
43664;SDS011;29263;48.172;11.484;2023-02-01T13:18:55;5.60;;;1.70;;
43664;SDS011;29263;48.172;11.484;2023-02-01T13:21:31;4.43;;;2.10;;
43664;SDS011;29263;48.172;11.484;2023-02-01T13:23:59;5.77;;;1.80;;
43664;SDS011;29263;48.172;11.484;2023-02-01T13:26:24;4.20;;;2.00;;
43664;SDS011;29263;48.172;11.484;2023-02-01T13:28:52;4.10;;;2.50;;
43664;SDS011;29263;48.172;11.484;2023-02-01T13:31:45;3.63;;;1.97;;
43664;SDS011;29263;48.172;11.484;2023-02-01T13:42:45;3.87;;;2.07;;
43664;SDS011;29263;48.172;11.484;2023-02-01T13:45:13;3.80;;;1.80;;
43664;SDS011;29263;48.172;11.484;2023-02-01T13:47:43;4.33;;;2.60;;
43664;SDS011;29263;48.172;11.484;2023-02-01T13:55:26;3.60;;;1.83;;
43664;SDS011;29263;48.172;11.484;2023-02-01T13:58:01;3.67;;;2.00;;
43664;SDS011;29263;48.172;11.484;2023-02-01T14:00:39;5.40;;;2.30;;
43664;SDS011;29263;48.172;11.484;2023-02-01T14:10:47;2.77;;;1.87;;
43664;SDS011;29263;48.172;11.484;2023-02-01T14:23:46;2.27;;;1.63;;
43664;SDS011;29263;48.172;11.484;2023-02-01T14:26:42;3.37;;;1.60;;
43664;SDS011;29263;48.172;11.484;2023-02-01T14:37:08;4.37;;;1.87;;
43664;SDS011;29263;48.172;11.484;2023-02-01T14:40:00;2.87;;;1.50;;
43664;SDS011;29263;48.172;11.484;2023-02-01T14:42:38;3.63;;;1.70;;
43664;SDS011;29263;48.172;11.484;2023-02-01T14:47:44;7.90;;;1.25;;
43664;SDS011;29263;48.172;11.484;2023-02-01T14:58:00;3.93;;;1.50;;
43664;SDS011;29263;48.172;11.484;2023-02-01T15:00:30;3.97;;;1.20;;
43664;SDS011;29263;48.172;11.484;2023-02-01T15:08:44;5.70;;;1.33;;
43664;SDS011;29263;48.172;11.484;2023-02-01T15:11:12;3.97;;;1.60;;
43664;SDS011;29263;48.172;11.484;2023-02-01T15:16:13;2.23;;;1.20;;
43664;SDS011;29263;48.172;11.484;2023-02-01T15:18:40;3.20;;;1.33;;
43664;SDS011;29263;48.172;11.484;2023-02-01T15:21:12;4.27;;;1.50;;
43664;SDS011;29263;48.172;11.484;2023-02-01T15:23:43;5.27;;;1.53;;
43664;SDS011;29263;48.172;11.484;2023-02-01T15:26:24;6.15;;;1.95;;
43664;SDS011;29263;48.172;11.484;2023-02-01T15:28:53;6.37;;;1.53;;
43664;SDS011;29263;48.172;11.484;2023-02-01T15:31:31;6.23;;;1.80;;
43664;SDS011;29263;48.172;11.484;2023-02-01T15:34:01;3.13;;;1.50;;
43664;SDS011;29263;48.172;11.484;2023-02-01T15:36:26;2.67;;;1.67;;
43664;SDS011;29263;48.172;11.484;2023-02-01T15:39:14;7.57;;;2.40;;
43664;SDS011;29263;48.172;11.484;2023-02-01T15:41:51;6.57;;;1.53;;
43664;SDS011;29263;48.172;11.484;2023-02-01T15:46:57;3.23;;;1.27;;
43664;SDS011;29263;48.172;11.484;2023-02-01T15:49:30;2.70;;;1.43;;
43664;SDS011;29263;48.172;11.484;2023-02-01T15:51:58;4.47;;;1.20;;
43664;SDS011;29263;48.172;11.484;2023-02-01T15:54:33;4.40;;;1.10;;
43664;SDS011;29263;48.172;11.484;2023-02-01T15:57:08;4.60;;;1.27;;
43664;SDS011;29263;48.172;11.484;2023-02-01T15:59:41;3.03;;;0.93;;
43664;SDS011;29263;48.172;11.484;2023-02-01T16:02:25;3.50;;;1.10;;
43664;SDS011;29263;48.172;11.484;2023-02-01T16:04:53;1.77;;;1.03;;
43664;SDS011;29263;48.172;11.484;2023-02-01T16:07:25;3.60;;;1.50;;
43664;SDS011;29263;48.172;11.484;2023-02-01T16:09:54;3.40;;;1.40;;
43664;SDS011;29263;48.172;11.484;2023-02-01T16:12:32;4.00;;;1.50;;
43664;SDS011;29263;48.172;11.484;2023-02-01T16:15:09;5.40;;;1.43;;
43664;SDS011;29263;48.172;11.484;2023-02-01T16:17:35;4.13;;;1.40;;
43664;SDS011;29263;48.172;11.484;2023-02-01T16:20:00;6.13;;;1.20;;
43664;SDS011;29263;48.172;11.484;2023-02-01T16:22:26;6.67;;;1.10;;
43664;SDS011;29263;48.172;11.484;2023-02-01T16:24:52;5.00;;;1.10;;
43664;SDS011;29263;48.172;11.484;2023-02-01T16:27:17;6.80;;;1.63;;
43664;SDS011;29263;48.172;11.484;2023-02-01T16:29:43;2.47;;;0.90;;
43664;SDS011;29263;48.172;11.484;2023-02-01T16:32:18;3.53;;;1.13;;
43664;SDS011;29263;48.172;11.484;2023-02-01T16:34:46;2.60;;;0.80;;
43664;SDS011;29263;48.172;11.484;2023-02-01T16:37:20;3.10;;;1.30;;
43664;SDS011;29263;48.172;11.484;2023-02-01T16:39:47;2.53;;;1.20;;
43664;SDS011;29263;48.172;11.484;2023-02-01T16:42:14;3.97;;;1.43;;
43664;SDS011;29263;48.172;11.484;2023-02-01T16:44:40;5.00;;;1.07;;
43664;SDS011;29263;48.172;11.484;2023-02-01T16:47:19;3.07;;;1.00;;
43664;SDS011;29263;48.172;11.484;2023-02-01T16:49:47;4.13;;;1.40;;
43664;SDS011;29263;48.172;11.484;2023-02-01T16:52:15;3.50;;;1.43;;
43664;SDS011;29263;48.172;11.484;2023-02-01T16:54:43;2.90;;;1.10;;
43664;SDS011;29263;48.172;11.484;2023-02-01T16:57:12;7.13;;;1.60;;
43664;SDS011;29263;48.172;11.484;2023-02-01T16:59:39;3.03;;;1.30;;
43664;SDS011;29263;48.172;11.484;2023-02-01T17:02:05;4.17;;;1.50;;
43664;SDS011;29263;48.172;11.484;2023-02-01T17:04:34;4.60;;;1.20;;
43664;SDS011;29263;48.172;11.484;2023-02-01T17:07:00;6.43;;;1.57;;
43664;SDS011;29263;48.172;11.484;2023-02-01T17:09:33;3.93;;;1.47;;
43664;SDS011;29263;48.172;11.484;2023-02-01T17:12:02;5.15;;;1.70;;
43664;SDS011;29263;48.172;11.484;2023-02-01T17:14:29;4.87;;;1.23;;
43664;SDS011;29263;48.172;11.484;2023-02-01T17:16:57;7.67;;;1.67;;
43664;SDS011;29263;48.172;11.484;2023-02-01T17:19:22;4.30;;;1.40;;
43664;SDS011;29263;48.172;11.484;2023-02-01T17:21:49;6.67;;;1.60;;
43664;SDS011;29263;48.172;11.484;2023-02-01T17:24:19;3.33;;;1.33;;
43664;SDS011;29263;48.172;11.484;2023-02-01T17:26:47;7.13;;;2.10;;
43664;SDS011;29263;48.172;11.484;2023-02-01T17:29:14;3.73;;;1.57;;
43664;SDS011;29263;48.172;11.484;2023-02-01T17:31:41;6.27;;;1.43;;
43664;SDS011;29263;48.172;11.484;2023-02-01T17:34:12;5.40;;;1.40;;
43664;SDS011;29263;48.172;11.484;2023-02-01T17:36:43;4.10;;;1.27;;
43664;SDS011;29263;48.172;11.484;2023-02-01T17:39:09;8.73;;;1.37;;
43664;SDS011;29263;48.172;11.484;2023-02-01T17:41:35;8.20;;;1.77;;
43664;SDS011;29263;48.172;11.484;2023-02-01T17:44:02;4.53;;;1.50;;
43664;SDS011;29263;48.172;11.484;2023-02-01T17:46:28;8.03;;;2.57;;
43664;SDS011;29263;48.172;11.484;2023-02-01T17:48:56;8.67;;;1.60;;
43664;SDS011;29263;48.172;11.484;2023-02-01T17:51:22;3.17;;;1.10;;
43664;SDS011;29263;48.172;11.484;2023-02-01T17:53:51;4.10;;;1.30;;
43664;SDS011;29263;48.172;11.484;2023-02-01T17:56:18;7.27;;;1.63;;
43664;SDS011;29263;48.172;11.484;2023-02-01T17:58:45;5.67;;;1.47;;
43664;SDS011;29263;48.172;11.484;2023-02-01T18:01:15;6.33;;;1.57;;
43664;SDS011;29263;48.172;11.484;2023-02-01T18:03:46;6.47;;;1.47;;
43664;SDS011;29263;48.172;11.484;2023-02-01T18:06:13;6.37;;;1.27;;